sensor_id;sensor_type;location;lat;lon;timestamp;P1;P2;P0
39955;PMS5003;25631;51.516;-0.470;2023-07-31T00:01:45;4;4;
39955;PMS5003;25631;51.516;-0.470;2023-07-31T00:04:21;5;4;
39955;PMS5003;25631;51.516;-0.470;2023-07-31T00:06:58;3;2;
39955;PMS5003;25631;51.516;-0.470;2023-07-31T00:09:34;4;2;
39955;PMS5003;25631;51.516;-0.470;2023-07-31T00:12:11;3;2;
39955;PMS5003;25631;51.516;-0.470;2023-07-31T00:14:47;2;2;
39955;PMS5003;25631;51.516;-0.470;2023-07-31T00:17:24;2;2;
39955;PMS5003;25631;51.516;-0.470;2023-07-31T00:20:00;2;2;
39955;PMS5003;25631;51.516;-0.470;2023-07-31T00:22:37;3;3;
39955;PMS5003;25631;51.516;-0.470;2023-07-31T00:25:14;3;2;
39955;PMS5003;25631;51.516;-0.470;2023-07-31T00:27:50;3;3;
39955;PMS5003;25631;51.516;-0.470;2023-07-31T00:30:27;3;3;
39955;PMS5003;25631;51.516;-0.470;2023-07-31T00:33:03;3;3;
39955;PMS5003;25631;51.516;-0.470;2023-07-31T00:35:40;4;4;
39955;PMS5003;25631;51.516;-0.470;2023-07-31T00:38:16;5;4;
39955;PMS5003;25631;51.516;-0.470;2023-07-31T00:40:53;2;1;
39955;PMS5003;25631;51.516;-0.470;2023-07-31T00:43:29;2;1;
39955;PMS5003;25631;51.516;-0.470;2023-07-31T00:46:06;3;2;
39955;PMS5003;25631;51.516;-0.470;2023-07-31T00:48:43;3;2;
39955;PMS5003;25631;51.516;-0.470;2023-07-31T00:51:19;2;2;
39955;PMS5003;25631;51.516;-0.470;2023-07-31T00:53:56;2;2;
39955;PMS5003;25631;51.516;-0.470;2023-07-31T00:56:33;2;2;
39955;PMS5003;25631;51.516;-0.470;2023-07-31T00:59:10;2;2;
39955;PMS5003;25631;51.516;-0.470;2023-07-31T01:01:47;3;3;
39955;PMS5003;25631;51.516;-0.470;2023-07-31T01:04:23;2;2;
39955;PMS5003;25631;51.516;-0.470;2023-07-31T01:07:01;2;2;
39955;PMS5003;25631;51.516;-0.470;2023-07-31T01:09:45;5;4;
39955;PMS5003;25631;51.516;-0.470;2023-07-31T01:12:28;5;4;
39955;PMS5003;25631;51.516;-0.470;2023-07-31T01:15:07;7;6;
39955;PMS5003;25631;51.516;-0.470;2023-07-31T01:17:45;7;6;
39955;PMS5003;25631;51.516;-0.470;2023-07-31T01:20:22;5;5;
39955;PMS5003;25631;51.516;-0.470;2023-07-31T01:24:14;7;5;
39955;PMS5003;25631;51.516;-0.470;2023-07-31T01:27:00;7;6;
39955;PMS5003;25631;51.516;-0.470;2023-07-31T01:29:42;7;6;
39955;PMS5003;25631;51.516;-0.470;2023-07-31T01:32:23;6;6;
39955;PMS5003;25631;51.516;-0.470;2023-07-31T01:35:02;7;7;
39955;PMS5003;25631;51.516;-0.470;2023-07-31T01:37:38;7;7;
39955;PMS5003;25631;51.516;-0.470;2023-07-31T01:40:15;7;7;
39955;PMS5003;25631;51.516;-0.470;2023-07-31T01:42:51;9;8;
39955;PMS5003;25631;51.516;-0.470;2023-07-31T01:45:28;9;7;
39955;PMS5003;25631;51.516;-0.470;2023-07-31T01:48:04;9;8;
39955;PMS5003;25631;51.516;-0.470;2023-07-31T01:50:41;9;9;
39955;PMS5003;25631;51.516;-0.470;2023-07-31T01:53:17;9;8;
39955;PMS5003;25631;51.516;-0.470;2023-07-31T01:55:53;7;5;
39955;PMS5003;25631;51.516;-0.470;2023-07-31T01:58:30;8;6;
39955;PMS5003;25631;51.516;-0.470;2023-07-31T02:01:06;9;6;
39955;PMS5003;25631;51.516;-0.470;2023-07-31T02:03:43;5;4;
39955;PMS5003;25631;51.516;-0.470;2023-07-31T02:06:19;4;3;
39955;PMS5003;25631;51.516;-0.470;2023-07-31T02:08:56;5;4;
39955;PMS5003;25631;51.516;-0.470;2023-07-31T02:11:32;5;4;
39955;PMS5003;25631;51.516;-0.470;2023-07-31T02:14:09;4;4;
39955;PMS5003;25631;51.516;-0.470;2023-07-31T02:16:46;2;2;
39955;PMS5003;25631;51.516;-0.470;2023-07-31T02:19:24;2;2;
39955;PMS5003;25631;51.516;-0.470;2023-07-31T02:22:00;3;3;
39955;PMS5003;25631;51.516;-0.470;2023-07-31T02:24:36;2;2;
39955;PMS5003;25631;51.516;-0.470;2023-07-31T02:27:13;3;3;
39955;PMS5003;25631;51.516;-0.470;2023-07-31T02:29:49;4;4;
39955;PMS5003;25631;51.516;-0.470;2023-07-31T02:32:26;4;3;
39955;PMS5003;25631;51.516;-0.470;2023-07-31T02:35:04;3;3;
39955;PMS5003;25631;51.516;-0.470;2023-07-31T02:37:41;2;2;
39955;PMS5003;25631;51.516;-0.470;2023-07-31T02:40:18;3;3;
39955;PMS5003;25631;51.516;-0.470;2023-07-31T02:42:54;3;3;
39955;PMS5003;25631;51.516;-0.470;2023-07-31T02:45:31;3;3;
39955;PMS5003;25631;51.516;-0.470;2023-07-31T02:48:07;4;3;
39955;PMS5003;25631;51.516;-0.470;2023-07-31T02:50:44;5;4;
39955;PMS5003;25631;51.516;-0.470;2023-07-31T02:53:20;4;2;
39955;PMS5003;25631;51.516;-0.470;2023-07-31T02:55:57;4;4;
39955;PMS5003;25631;51.516;-0.470;2023-07-31T02:58:33;5;5;
39955;PMS5003;25631;51.516;-0.470;2023-07-31T03:01:10;5;5;
39955;PMS5003;25631;51.516;-0.470;2023-07-31T03:03:47;6;5;
39955;PMS5003;25631;51.516;-0.470;2023-07-31T03:06:23;5;5;
39955;PMS5003;25631;51.516;-0.470;2023-07-31T03:09:00;3;3;
39955;PMS5003;25631;51.516;-0.470;2023-07-31T03:11:36;5;4;
39955;PMS5003;25631;51.516;-0.470;2023-07-31T03:14:13;5;4;
39955;PMS5003;25631;51.516;-0.470;2023-07-31T03:16:49;6;6;
39955;PMS5003;25631;51.516;-0.470;2023-07-31T03:19:25;6;6;
39955;PMS5003;25631;51.516;-0.470;2023-07-31T03:22:02;5;5;
39955;PMS5003;25631;51.516;-0.470;2023-07-31T03:24:39;5;4;
39955;PMS5003;25631;51.516;-0.470;2023-07-31T03:27:15;5;4;
39955;PMS5003;25631;51.516;-0.470;2023-07-31T03:29:52;3;3;
39955;PMS5003;25631;51.516;-0.470;2023-07-31T03:32:28;2;2;
39955;PMS5003;25631;51.516;-0.470;2023-07-31T03:35:05;3;3;
39955;PMS5003;25631;51.516;-0.470;2023-07-31T03:37:42;4;4;
39955;PMS5003;25631;51.516;-0.470;2023-07-31T03:40:18;4;4;
39955;PMS5003;25631;51.516;-0.470;2023-07-31T03:42:55;5;5;
39955;PMS5003;25631;51.516;-0.470;2023-07-31T03:45:31;7;6;
39955;PMS5003;25631;51.516;-0.470;2023-07-31T03:48:08;7;6;
39955;PMS5003;25631;51.516;-0.470;2023-07-31T03:50:44;4;4;
39955;PMS5003;25631;51.516;-0.470;2023-07-31T03:53:21;2;2;
39955;PMS5003;25631;51.516;-0.470;2023-07-31T03:55:57;4;4;
39955;PMS5003;25631;51.516;-0.470;2023-07-31T03:58:33;8;5;
39955;PMS5003;25631;51.516;-0.470;2023-07-31T04:01:10;9;6;
39955;PMS5003;25631;51.516;-0.470;2023-07-31T04:03:46;4;4;
39955;PMS5003;25631;51.516;-0.470;2023-07-31T04:06:22;5;5;
39955;PMS5003;25631;51.516;-0.470;2023-07-31T04:08:59;5;5;
39955;PMS5003;25631;51.516;-0.470;2023-07-31T04:11:36;6;5;
39955;PMS5003;25631;51.516;-0.470;2023-07-31T04:14:12;5;4;
39955;PMS5003;25631;51.516;-0.470;2023-07-31T04:16:49;3;3;
39955;PMS5003;25631;51.516;-0.470;2023-07-31T04:19:26;5;5;
39955;PMS5003;25631;51.516;-0.470;2023-07-31T04:22:03;4;4;
39955;PMS5003;25631;51.516;-0.470;2023-07-31T04:24:40;5;4;
39955;PMS5003;25631;51.516;-0.470;2023-07-31T04:27:16;5;5;
39955;PMS5003;25631;51.516;-0.470;2023-07-31T04:29:52;5;5;
39955;PMS5003;25631;51.516;-0.470;2023-07-31T04:32:29;5;5;
39955;PMS5003;25631;51.516;-0.470;2023-07-31T04:35:06;4;4;
39955;PMS5003;25631;51.516;-0.470;2023-07-31T04:37:43;6;4;
39955;PMS5003;25631;51.516;-0.470;2023-07-31T04:40:20;6;4;
39955;PMS5003;25631;51.516;-0.470;2023-07-31T04:42:57;6;4;
39955;PMS5003;25631;51.516;-0.470;2023-07-31T04:45:33;4;4;
39955;PMS5003;25631;51.516;-0.470;2023-07-31T04:48:09;5;5;
39955;PMS5003;25631;51.516;-0.470;2023-07-31T04:50:46;3;3;
39955;PMS5003;25631;51.516;-0.470;2023-07-31T04:53:22;5;4;
39955;PMS5003;25631;51.516;-0.470;2023-07-31T04:55:59;3;3;
39955;PMS5003;25631;51.516;-0.470;2023-07-31T04:58:35;5;5;
39955;PMS5003;25631;51.516;-0.470;2023-07-31T05:01:12;5;5;
39955;PMS5003;25631;51.516;-0.470;2023-07-31T05:03:48;5;5;
39955;PMS5003;25631;51.516;-0.470;2023-07-31T05:06:25;6;4;
39955;PMS5003;25631;51.516;-0.470;2023-07-31T05:09:06;7;5;
39955;PMS5003;25631;51.516;-0.470;2023-07-31T05:11:43;3;2;
39955;PMS5003;25631;51.516;-0.470;2023-07-31T05:14:19;4;3;
39955;PMS5003;25631;51.516;-0.470;2023-07-31T05:16:56;4;3;
39955;PMS5003;25631;51.516;-0.470;2023-07-31T05:19:32;5;5;
39955;PMS5003;25631;51.516;-0.470;2023-07-31T05:22:09;4;4;
39955;PMS5003;25631;51.516;-0.470;2023-07-31T05:24:45;5;4;
39955;PMS5003;25631;51.516;-0.470;2023-07-31T05:27:22;5;4;
39955;PMS5003;25631;51.516;-0.470;2023-07-31T05:29:59;6;5;
39955;PMS5003;25631;51.516;-0.470;2023-07-31T05:32:35;5;4;
39955;PMS5003;25631;51.516;-0.470;2023-07-31T05:35:12;4;4;
39955;PMS5003;25631;51.516;-0.470;2023-07-31T05:37:48;4;3;
39955;PMS5003;25631;51.516;-0.470;2023-07-31T05:40:25;6;6;
39955;PMS5003;25631;51.516;-0.470;2023-07-31T05:43:01;5;5;
39955;PMS5003;25631;51.516;-0.470;2023-07-31T05:45:38;3;3;
39955;PMS5003;25631;51.516;-0.470;2023-07-31T05:48:14;4;4;
39955;PMS5003;25631;51.516;-0.470;2023-07-31T05:50:51;4;4;
39955;PMS5003;25631;51.516;-0.470;2023-07-31T05:53:28;4;4;
39955;PMS5003;25631;51.516;-0.470;2023-07-31T05:56:04;4;4;
39955;PMS5003;25631;51.516;-0.470;2023-07-31T05:58:40;4;3;
39955;PMS5003;25631;51.516;-0.470;2023-07-31T06:01:17;6;4;
39955;PMS5003;25631;51.516;-0.470;2023-07-31T06:03:54;7;4;
39955;PMS5003;25631;51.516;-0.470;2023-07-31T06:06:31;4;4;
39955;PMS5003;25631;51.516;-0.470;2023-07-31T06:09:07;4;4;
39955;PMS5003;25631;51.516;-0.470;2023-07-31T06:11:44;4;4;
39955;PMS5003;25631;51.516;-0.470;2023-07-31T06:14:20;5;4;
39955;PMS5003;25631;51.516;-0.470;2023-07-31T06:16:57;6;5;
39955;PMS5003;25631;51.516;-0.470;2023-07-31T06:19:34;7;6;
39955;PMS5003;25631;51.516;-0.470;2023-07-31T06:22:10;7;6;
39955;PMS5003;25631;51.516;-0.470;2023-07-31T06:24:47;6;5;
39955;PMS5003;25631;51.516;-0.470;2023-07-31T06:27:24;8;8;
39955;PMS5003;25631;51.516;-0.470;2023-07-31T06:30:00;8;8;
39955;PMS5003;25631;51.516;-0.470;2023-07-31T06:32:36;5;5;
39955;PMS5003;25631;51.516;-0.470;2023-07-31T06:35:13;6;6;
39955;PMS5003;25631;51.516;-0.470;2023-07-31T06:37:49;5;5;
39955;PMS5003;25631;51.516;-0.470;2023-07-31T06:40:26;6;6;
39955;PMS5003;25631;51.516;-0.470;2023-07-31T06:43:02;8;7;
39955;PMS5003;25631;51.516;-0.470;2023-07-31T06:45:39;9;7;
39955;PMS5003;25631;51.516;-0.470;2023-07-31T06:48:16;7;6;
39955;PMS5003;25631;51.516;-0.470;2023-07-31T06:50:52;6;5;
39955;PMS5003;25631;51.516;-0.470;2023-07-31T06:53:29;7;6;
39955;PMS5003;25631;51.516;-0.470;2023-07-31T06:56:05;7;6;
39955;PMS5003;25631;51.516;-0.470;2023-07-31T06:58:41;7;6;
39955;PMS5003;25631;51.516;-0.470;2023-07-31T07:01:18;6;5;
39955;PMS5003;25631;51.516;-0.470;2023-07-31T07:03:54;6;5;
39955;PMS5003;25631;51.516;-0.470;2023-07-31T07:06:31;8;7;
39955;PMS5003;25631;51.516;-0.470;2023-07-31T07:09:08;6;6;
39955;PMS5003;25631;51.516;-0.470;2023-07-31T07:11:44;8;8;
39955;PMS5003;25631;51.516;-0.470;2023-07-31T07:14:20;7;7;
39955;PMS5003;25631;51.516;-0.470;2023-07-31T07:16:57;7;6;
39955;PMS5003;25631;51.516;-0.470;2023-07-31T07:19:33;6;5;
39955;PMS5003;25631;51.516;-0.470;2023-07-31T07:22:10;6;5;
39955;PMS5003;25631;51.516;-0.470;2023-07-31T07:24:47;6;6;
39955;PMS5003;25631;51.516;-0.470;2023-07-31T07:27:23;7;7;
39955;PMS5003;25631;51.516;-0.470;2023-07-31T07:30:00;6;6;
39955;PMS5003;25631;51.516;-0.470;2023-07-31T07:32:36;5;5;
39955;PMS5003;25631;51.516;-0.470;2023-07-31T07:35:13;10;9;
39955;PMS5003;25631;51.516;-0.470;2023-07-31T07:37:49;12;11;
39955;PMS5003;25631;51.516;-0.470;2023-07-31T07:40:26;9;8;
39955;PMS5003;25631;51.516;-0.470;2023-07-31T07:43:02;10;9;
39955;PMS5003;25631;51.516;-0.470;2023-07-31T07:45:39;11;9;
39955;PMS5003;25631;51.516;-0.470;2023-07-31T07:48:15;9;7;
39955;PMS5003;25631;51.516;-0.470;2023-07-31T07:50:52;10;9;
39955;PMS5003;25631;51.516;-0.470;2023-07-31T07:53:28;10;9;
39955;PMS5003;25631;51.516;-0.470;2023-07-31T07:56:05;11;11;
39955;PMS5003;25631;51.516;-0.470;2023-07-31T07:58:41;12;11;
39955;PMS5003;25631;51.516;-0.470;2023-07-31T08:01:17;12;10;
39955;PMS5003;25631;51.516;-0.470;2023-07-31T08:03:54;12;11;
39955;PMS5003;25631;51.516;-0.470;2023-07-31T08:06:30;11;11;
39955;PMS5003;25631;51.516;-0.470;2023-07-31T08:09:07;8;8;
39955;PMS5003;25631;51.516;-0.470;2023-07-31T08:11:43;8;7;
39955;PMS5003;25631;51.516;-0.470;2023-07-31T08:14:20;6;6;
39955;PMS5003;25631;51.516;-0.470;2023-07-31T08:16:56;6;6;
39955;PMS5003;25631;51.516;-0.470;2023-07-31T08:19:33;5;5;
39955;PMS5003;25631;51.516;-0.470;2023-07-31T08:22:09;6;6;
39955;PMS5003;25631;51.516;-0.470;2023-07-31T08:24:50;6;6;
39955;PMS5003;25631;51.516;-0.470;2023-07-31T08:27:27;6;6;
39955;PMS5003;25631;51.516;-0.470;2023-07-31T08:30:05;6;5;
39955;PMS5003;25631;51.516;-0.470;2023-07-31T08:32:42;7;6;
39955;PMS5003;25631;51.516;-0.470;2023-07-31T08:35:19;5;5;
39955;PMS5003;25631;51.516;-0.470;2023-07-31T08:37:56;4;4;
39955;PMS5003;25631;51.516;-0.470;2023-07-31T08:40:33;4;4;
39955;PMS5003;25631;51.516;-0.470;2023-07-31T08:43:12;5;4;
39955;PMS5003;25631;51.516;-0.470;2023-07-31T08:45:49;4;4;
39955;PMS5003;25631;51.516;-0.470;2023-07-31T08:48:26;2;2;
39955;PMS5003;25631;51.516;-0.470;2023-07-31T08:51:05;2;2;
39955;PMS5003;25631;51.516;-0.470;2023-07-31T08:53:42;2;2;
39955;PMS5003;25631;51.516;-0.470;2023-07-31T08:56:18;2;1;
39955;PMS5003;25631;51.516;-0.470;2023-07-31T08:58:55;3;2;
39955;PMS5003;25631;51.516;-0.470;2023-07-31T09:01:34;3;2;
39955;PMS5003;25631;51.516;-0.470;2023-07-31T09:04:17;3;3;
39955;PMS5003;25631;51.516;-0.470;2023-07-31T09:06:57;4;3;
39955;PMS5003;25631;51.516;-0.470;2023-07-31T09:09:36;5;4;
39955;PMS5003;25631;51.516;-0.470;2023-07-31T09:12:13;6;5;
39955;PMS5003;25631;51.516;-0.470;2023-07-31T09:14:50;5;5;
39955;PMS5003;25631;51.516;-0.470;2023-07-31T09:17:32;7;7;
39955;PMS5003;25631;51.516;-0.470;2023-07-31T09:20:13;8;8;
39955;PMS5003;25631;51.516;-0.470;2023-07-31T09:22:50;6;6;
39955;PMS5003;25631;51.516;-0.470;2023-07-31T09:25:28;5;5;
39955;PMS5003;25631;51.516;-0.470;2023-07-31T09:28:05;5;5;
39955;PMS5003;25631;51.516;-0.470;2023-07-31T09:30:44;8;8;
39955;PMS5003;25631;51.516;-0.470;2023-07-31T09:33:23;8;7;
39955;PMS5003;25631;51.516;-0.470;2023-07-31T09:35:59;5;5;
39955;PMS5003;25631;51.516;-0.470;2023-07-31T09:38:36;6;6;
39955;PMS5003;25631;51.516;-0.470;2023-07-31T09:41:12;6;6;
39955;PMS5003;25631;51.516;-0.470;2023-07-31T09:43:53;4;3;
39955;PMS5003;25631;51.516;-0.470;2023-07-31T09:46:30;4;4;
39955;PMS5003;25631;51.516;-0.470;2023-07-31T09:49:07;4;4;
39955;PMS5003;25631;51.516;-0.470;2023-07-31T09:51:45;5;5;
39955;PMS5003;25631;51.516;-0.470;2023-07-31T09:54:21;5;5;
39955;PMS5003;25631;51.516;-0.470;2023-07-31T09:56:58;5;5;
39955;PMS5003;25631;51.516;-0.470;2023-07-31T09:59:36;6;6;
39955;PMS5003;25631;51.516;-0.470;2023-07-31T10:02:14;8;7;
39955;PMS5003;25631;51.516;-0.470;2023-07-31T10:04:57;7;7;
39955;PMS5003;25631;51.516;-0.470;2023-07-31T10:07:38;7;7;
39955;PMS5003;25631;51.516;-0.470;2023-07-31T10:10:14;6;6;
39955;PMS5003;25631;51.516;-0.470;2023-07-31T10:12:52;6;6;
39955;PMS5003;25631;51.516;-0.470;2023-07-31T10:15:29;5;5;
39955;PMS5003;25631;51.516;-0.470;2023-07-31T10:18:07;5;5;
39955;PMS5003;25631;51.516;-0.470;2023-07-31T10:20:44;5;5;
39955;PMS5003;25631;51.516;-0.470;2023-07-31T10:23:23;3;3;
39955;PMS5003;25631;51.516;-0.470;2023-07-31T10:26:00;4;4;
39955;PMS5003;25631;51.516;-0.470;2023-07-31T10:28:38;4;4;
39955;PMS5003;25631;51.516;-0.470;2023-07-31T10:31:16;5;5;
39955;PMS5003;25631;51.516;-0.470;2023-07-31T10:33:53;5;5;
39955;PMS5003;25631;51.516;-0.470;2023-07-31T10:36:31;2;2;
39955;PMS5003;25631;51.516;-0.470;2023-07-31T10:39:32;4;4;
39955;PMS5003;25631;51.516;-0.470;2023-07-31T10:42:10;3;3;
39955;PMS5003;25631;51.516;-0.470;2023-07-31T10:44:47;5;4;
39955;PMS5003;25631;51.516;-0.470;2023-07-31T10:47:24;5;4;
39955;PMS5003;25631;51.516;-0.470;2023-07-31T10:50:17;3;3;
39955;PMS5003;25631;51.516;-0.470;2023-07-31T10:52:55;4;4;
39955;PMS5003;25631;51.516;-0.470;2023-07-31T10:55:33;4;4;
39955;PMS5003;25631;51.516;-0.470;2023-07-31T10:58:15;3;3;
39955;PMS5003;25631;51.516;-0.470;2023-07-31T11:00:55;3;3;
39955;PMS5003;25631;51.516;-0.470;2023-07-31T11:03:40;4;4;
39955;PMS5003;25631;51.516;-0.470;2023-07-31T11:06:18;4;4;
39955;PMS5003;25631;51.516;-0.470;2023-07-31T11:08:55;4;4;
39955;PMS5003;25631;51.516;-0.470;2023-07-31T11:11:31;3;3;
39955;PMS5003;25631;51.516;-0.470;2023-07-31T11:14:09;3;3;
39955;PMS5003;25631;51.516;-0.470;2023-07-31T11:16:47;4;3;
39955;PMS5003;25631;51.516;-0.470;2023-07-31T11:19:25;4;4;
39955;PMS5003;25631;51.516;-0.470;2023-07-31T11:22:02;4;3;
39955;PMS5003;25631;51.516;-0.470;2023-07-31T11:24:39;4;3;
39955;PMS5003;25631;51.516;-0.470;2023-07-31T11:27:15;3;2;
39955;PMS5003;25631;51.516;-0.470;2023-07-31T11:29:52;5;4;
39955;PMS5003;25631;51.516;-0.470;2023-07-31T11:32:28;3;3;
39955;PMS5003;25631;51.516;-0.470;2023-07-31T11:35:05;3;3;
39955;PMS5003;25631;51.516;-0.470;2023-07-31T11:37:42;3;3;
39955;PMS5003;25631;51.516;-0.470;2023-07-31T11:40:19;3;3;
39955;PMS5003;25631;51.516;-0.470;2023-07-31T11:42:56;3;3;
39955;PMS5003;25631;51.516;-0.470;2023-07-31T11:45:33;4;3;
39955;PMS5003;25631;51.516;-0.470;2023-07-31T11:48:10;6;5;
39955;PMS5003;25631;51.516;-0.470;2023-07-31T11:50:46;6;4;
39955;PMS5003;25631;51.516;-0.470;2023-07-31T11:53:25;7;4;
39955;PMS5003;25631;51.516;-0.470;2023-07-31T11:56:04;5;4;
39955;PMS5003;25631;51.516;-0.470;2023-07-31T11:58:43;4;4;
39955;PMS5003;25631;51.516;-0.470;2023-07-31T12:01:22;5;4;
39955;PMS5003;25631;51.516;-0.470;2023-07-31T12:03:59;3;3;
39955;PMS5003;25631;51.516;-0.470;2023-07-31T12:06:36;4;4;
39955;PMS5003;25631;51.516;-0.470;2023-07-31T12:09:14;4;4;
39955;PMS5003;25631;51.516;-0.470;2023-07-31T12:11:50;2;1;
39955;PMS5003;25631;51.516;-0.470;2023-07-31T12:14:27;1;1;
39955;PMS5003;25631;51.516;-0.470;2023-07-31T12:17:04;2;1;
39955;PMS5003;25631;51.516;-0.470;2023-07-31T12:19:42;4;3;
39955;PMS5003;25631;51.516;-0.470;2023-07-31T12:22:19;3;3;
39955;PMS5003;25631;51.516;-0.470;2023-07-31T12:24:56;3;2;
39955;PMS5003;25631;51.516;-0.470;2023-07-31T12:27:33;3;3;
39955;PMS5003;25631;51.516;-0.470;2023-07-31T12:30:25;3;3;
39955;PMS5003;25631;51.516;-0.470;2023-07-31T12:33:03;2;2;
39955;PMS5003;25631;51.516;-0.470;2023-07-31T12:35:41;2;2;
39955;PMS5003;25631;51.516;-0.470;2023-07-31T12:38:19;0;0;
39955;PMS5003;25631;51.516;-0.470;2023-07-31T12:40:56;1;1;
39955;PMS5003;25631;51.516;-0.470;2023-07-31T12:43:32;1;1;
39955;PMS5003;25631;51.516;-0.470;2023-07-31T12:46:09;2;1;
39955;PMS5003;25631;51.516;-0.470;2023-07-31T12:48:45;2;1;
39955;PMS5003;25631;51.516;-0.470;2023-07-31T12:51:22;1;1;
39955;PMS5003;25631;51.516;-0.470;2023-07-31T12:53:58;0;0;
39955;PMS5003;25631;51.516;-0.470;2023-07-31T12:56:35;1;1;
39955;PMS5003;25631;51.516;-0.470;2023-07-31T12:59:11;2;2;
39955;PMS5003;25631;51.516;-0.470;2023-07-31T13:01:48;1;1;
39955;PMS5003;25631;51.516;-0.470;2023-07-31T13:04:24;2;2;
39955;PMS5003;25631;51.516;-0.470;2023-07-31T13:07:01;0;0;
39955;PMS5003;25631;51.516;-0.470;2023-07-31T13:09:37;0;0;
39955;PMS5003;25631;51.516;-0.470;2023-07-31T13:12:14;0;0;
39955;PMS5003;25631;51.516;-0.470;2023-07-31T13:14:50;0;0;
39955;PMS5003;25631;51.516;-0.470;2023-07-31T13:17:27;1;1;
39955;PMS5003;25631;51.516;-0.470;2023-07-31T13:20:04;1;1;
39955;PMS5003;25631;51.516;-0.470;2023-07-31T13:22:41;1;1;
39955;PMS5003;25631;51.516;-0.470;2023-07-31T13:25:17;1;1;
39955;PMS5003;25631;51.516;-0.470;2023-07-31T13:27:54;1;1;
39955;PMS5003;25631;51.516;-0.470;2023-07-31T13:30:31;1;1;
39955;PMS5003;25631;51.516;-0.470;2023-07-31T13:33:07;3;2;
39955;PMS5003;25631;51.516;-0.470;2023-07-31T13:35:44;3;2;
39955;PMS5003;25631;51.516;-0.470;2023-07-31T13:38:20;1;1;
39955;PMS5003;25631;51.516;-0.470;2023-07-31T13:40:56;1;1;
39955;PMS5003;25631;51.516;-0.470;2023-07-31T13:43:33;2;2;
39955;PMS5003;25631;51.516;-0.470;2023-07-31T13:46:09;1;1;
39955;PMS5003;25631;51.516;-0.470;2023-07-31T13:48:46;1;1;
39955;PMS5003;25631;51.516;-0.470;2023-07-31T13:51:22;1;1;
39955;PMS5003;25631;51.516;-0.470;2023-07-31T13:53:59;1;1;
39955;PMS5003;25631;51.516;-0.470;2023-07-31T13:56:37;0;0;
39955;PMS5003;25631;51.516;-0.470;2023-07-31T13:59:14;0;0;
39955;PMS5003;25631;51.516;-0.470;2023-07-31T14:01:50;0;0;
39955;PMS5003;25631;51.516;-0.470;2023-07-31T14:04:26;0;0;
39955;PMS5003;25631;51.516;-0.470;2023-07-31T14:07:03;0;0;
39955;PMS5003;25631;51.516;-0.470;2023-07-31T14:09:40;0;0;
39955;PMS5003;25631;51.516;-0.470;2023-07-31T14:12:17;0;0;
39955;PMS5003;25631;51.516;-0.470;2023-07-31T14:14:53;1;1;
39955;PMS5003;25631;51.516;-0.470;2023-07-31T14:17:29;1;1;
39955;PMS5003;25631;51.516;-0.470;2023-07-31T14:20:06;1;1;
39955;PMS5003;25631;51.516;-0.470;2023-07-31T14:22:43;1;1;
39955;PMS5003;25631;51.516;-0.470;2023-07-31T14:25:20;1;1;
39955;PMS5003;25631;51.516;-0.470;2023-07-31T14:27:56;1;1;
39955;PMS5003;25631;51.516;-0.470;2023-07-31T14:30:33;0;0;
39955;PMS5003;25631;51.516;-0.470;2023-07-31T14:33:09;0;0;
39955;PMS5003;25631;51.516;-0.470;2023-07-31T14:35:46;0;0;
39955;PMS5003;25631;51.516;-0.470;2023-07-31T14:38:22;0;0;
39955;PMS5003;25631;51.516;-0.470;2023-07-31T14:40:59;0;0;
39955;PMS5003;25631;51.516;-0.470;2023-07-31T14:43:35;0;0;
39955;PMS5003;25631;51.516;-0.470;2023-07-31T14:46:12;2;1;
39955;PMS5003;25631;51.516;-0.470;2023-07-31T14:48:48;1;0;
39955;PMS5003;25631;51.516;-0.470;2023-07-31T14:51:25;2;2;
39955;PMS5003;25631;51.516;-0.470;2023-07-31T14:54:01;3;3;
39955;PMS5003;25631;51.516;-0.470;2023-07-31T14:56:38;3;3;
39955;PMS5003;25631;51.516;-0.470;2023-07-31T14:59:14;2;2;
39955;PMS5003;25631;51.516;-0.470;2023-07-31T15:01:51;1;1;
39955;PMS5003;25631;51.516;-0.470;2023-07-31T15:04:27;1;1;
39955;PMS5003;25631;51.516;-0.470;2023-07-31T15:07:04;1;1;
39955;PMS5003;25631;51.516;-0.470;2023-07-31T15:09:41;2;2;
39955;PMS5003;25631;51.516;-0.470;2023-07-31T15:12:17;1;1;
39955;PMS5003;25631;51.516;-0.470;2023-07-31T15:14:54;2;2;
39955;PMS5003;25631;51.516;-0.470;2023-07-31T15:17:30;2;2;
39955;PMS5003;25631;51.516;-0.470;2023-07-31T15:20:08;2;2;
39955;PMS5003;25631;51.516;-0.470;2023-07-31T15:22:46;2;2;
39955;PMS5003;25631;51.516;-0.470;2023-07-31T15:25:22;1;1;
39955;PMS5003;25631;51.516;-0.470;2023-07-31T15:27:58;3;3;
39955;PMS5003;25631;51.516;-0.470;2023-07-31T15:30:35;3;3;
39955;PMS5003;25631;51.516;-0.470;2023-07-31T15:33:12;2;2;
39955;PMS5003;25631;51.516;-0.470;2023-07-31T15:35:48;1;1;
39955;PMS5003;25631;51.516;-0.470;2023-07-31T15:38:25;1;1;
39955;PMS5003;25631;51.516;-0.470;2023-07-31T15:41:01;2;2;
39955;PMS5003;25631;51.516;-0.470;2023-07-31T15:43:38;2;2;
39955;PMS5003;25631;51.516;-0.470;2023-07-31T15:46:14;1;0;
39955;PMS5003;25631;51.516;-0.470;2023-07-31T15:48:51;2;1;
39955;PMS5003;25631;51.516;-0.470;2023-07-31T15:51:27;0;0;
39955;PMS5003;25631;51.516;-0.470;2023-07-31T15:54:04;1;1;
39955;PMS5003;25631;51.516;-0.470;2023-07-31T15:56:41;2;2;
39955;PMS5003;25631;51.516;-0.470;2023-07-31T15:59:17;2;2;
39955;PMS5003;25631;51.516;-0.470;2023-07-31T16:01:54;2;2;
39955;PMS5003;25631;51.516;-0.470;2023-07-31T16:04:30;2;2;
39955;PMS5003;25631;51.516;-0.470;2023-07-31T16:07:07;1;1;
39955;PMS5003;25631;51.516;-0.470;2023-07-31T16:09:43;1;1;
39955;PMS5003;25631;51.516;-0.470;2023-07-31T16:12:20;0;0;
39955;PMS5003;25631;51.516;-0.470;2023-07-31T16:14:56;0;0;
39955;PMS5003;25631;51.516;-0.470;2023-07-31T16:17:32;0;0;
39955;PMS5003;25631;51.516;-0.470;2023-07-31T16:20:09;0;0;
39955;PMS5003;25631;51.516;-0.470;2023-07-31T16:22:46;0;0;
39955;PMS5003;25631;51.516;-0.470;2023-07-31T16:25:24;0;0;
39955;PMS5003;25631;51.516;-0.470;2023-07-31T16:28:00;2;2;
39955;PMS5003;25631;51.516;-0.470;2023-07-31T16:30:37;1;1;
39955;PMS5003;25631;51.516;-0.470;2023-07-31T16:33:14;1;1;
39955;PMS5003;25631;51.516;-0.470;2023-07-31T16:35:50;1;1;
39955;PMS5003;25631;51.516;-0.470;2023-07-31T16:38:27;2;2;
39955;PMS5003;25631;51.516;-0.470;2023-07-31T16:41:03;1;1;
39955;PMS5003;25631;51.516;-0.470;2023-07-31T16:43:41;0;0;
39955;PMS5003;25631;51.516;-0.470;2023-07-31T16:46:18;2;2;
39955;PMS5003;25631;51.516;-0.470;2023-07-31T16:48:54;2;1;
39955;PMS5003;25631;51.516;-0.470;2023-07-31T16:51:31;2;1;
39955;PMS5003;25631;51.516;-0.470;2023-07-31T16:54:07;3;2;
39955;PMS5003;25631;51.516;-0.470;2023-07-31T16:56:44;1;1;
39955;PMS5003;25631;51.516;-0.470;2023-07-31T16:59:20;1;1;
39955;PMS5003;25631;51.516;-0.470;2023-07-31T17:01:57;1;1;
39955;PMS5003;25631;51.516;-0.470;2023-07-31T17:04:33;1;1;
39955;PMS5003;25631;51.516;-0.470;2023-07-31T17:07:10;1;1;
39955;PMS5003;25631;51.516;-0.470;2023-07-31T17:09:46;1;1;
39955;PMS5003;25631;51.516;-0.470;2023-07-31T17:12:23;0;0;
39955;PMS5003;25631;51.516;-0.470;2023-07-31T17:14:59;1;1;
39955;PMS5003;25631;51.516;-0.470;2023-07-31T17:17:36;0;0;
39955;PMS5003;25631;51.516;-0.470;2023-07-31T17:20:12;1;1;
39955;PMS5003;25631;51.516;-0.470;2023-07-31T17:22:49;1;0;
39955;PMS5003;25631;51.516;-0.470;2023-07-31T17:25:25;1;0;
39955;PMS5003;25631;51.516;-0.470;2023-07-31T17:28:02;1;1;
39955;PMS5003;25631;51.516;-0.470;2023-07-31T17:30:38;1;1;
39955;PMS5003;25631;51.516;-0.470;2023-07-31T17:33:15;1;1;
39955;PMS5003;25631;51.516;-0.470;2023-07-31T17:35:52;1;1;
39955;PMS5003;25631;51.516;-0.470;2023-07-31T17:38:28;1;1;
39955;PMS5003;25631;51.516;-0.470;2023-07-31T17:41:04;1;1;